Archival Weather

Salzburg

Salzburg, Austria (LOWS)

Report from: Thursday, September 21, 2023 3:50 PM CEST
Current time: Saturday, March 2, 2024 10:35 AM CET

Current weather – Weather history – Daily summaries
Weather forecast

Temperature27.0°C (80.6°F)
Heat index27.6°C (81.6°F)
Dew point15.0°C (59.0°F)
Winds 6 kts (3.1 m/s, 6.9 mph) Vrb
Winds variableWinds variable from North (350°) to East (80°)
Visibility6.2 mi. (10 km)
Clouds Few clouds 6,000 ft. (1,829 m)
Altimeter29.59 in.Hg (1002 mB)
Relative humidity48 %
Density altitude1,999 ft. (609 m)
Remarks No significant changes expected in the next two hours
Flight conditions Visual Meteorological Conditions
Raw dataLOWS 211350Z 04006KT 350V080 9999 FEW060 27/15 Q1002 NOSIG
An error has occurred. This application may no longer respond until reloaded. Reload 🗙